Change the Weather History Date:

Wednesday, January 30, 2013

  Actual Average (KARG) Record (KARG)
Temperature  
Mean Temperature 42 °F -  
Max Temperature 53 °F 44 °F 64 °F (2002)
Min Temperature 32 °F 30 °F 15 °F (2004)
Degree Days  
Heating Degree Days 22    
Moisture  
Dew Point 38 °F    
Average Humidity 79    
Maximum Humidity 100    
Minimum Humidity 60    
Precipitation  
Precipitation 0.05 in - - ()
Sea Level Pressure  
Sea Level Pressure 29.69 in    
Wind  
Wind Speed 14 mph (WSW)    
Max Wind Speed 30 mph    
Max Gust Speed 41 mph    
Visibility 10 miles    
Events Rain    
Averages and records for this station are not official NWS values.
T = Trace of Precipitation, MM = Missing Value Source: NWS Daily Summary

Daily Weather History Graph

Daily Weather History Graph

Search for Another Location

Airport or City:

Trip Planner

Search our weather history database for the weather conditions in past years. The results will help you decide how hot, cold, wet, or windy it might be!

Date:

Astronomy

Jan. 30, 2013 Rise Set
Actual Time 7:05 AM CST 5:27 PM CST
Civil Twilight 6:38 AM CST 5:54 PM CST
Nautical Twilight 6:07 AM CST 6:25 PM CST
Astronomical Twilight 5:36 AM CST 6:55 PM CST
Moon 9:17 PM CST (1/30) 8:41 AM CST (1/30)
Length of Visible Light 11h 16m
Length of Day
10h 21m
Waning Gibbous, 87% of the Moon is Illuminated
Jan 30
Waning Gibbous
Feb 3
Last Quarter
Feb 10
New
Feb 17
First Quarter
Feb 25
Full

Hourly Weather History & Observations

Time (CST) Temp. Windchill Dew Point Humidity Pressure Visibility Wind Dir Wind Speed Gust Speed Precip Events Conditions
12:15 AM 53.6 °F - 53.6 °F 100% 29.55 in 2.5 mi ESE 5.8 mph - 0.04 in Rain Light Rain
12:35 AM 53.6 °F - 53.6 °F 100% 29.56 in 10.0 mi ESE 4.6 mph - 0.04 in   Overcast
12:55 AM 53.6 °F - 53.6 °F 100% 29.59 in 9.0 mi SSW 4.6 mph - 0.04 in   Overcast
1:15 AM 53.6 °F - 53.6 °F 100% 29.60 in 10.0 mi WSW 4.6 mph - N/A   Overcast
1:35 AM 53.6 °F - 53.6 °F 100% 29.55 in 5.0 mi Calm Calm - 0.01 in Rain Light Rain
1:55 AM 53.6 °F - 53.6 °F 100% 29.52 in 10.0 mi Calm Calm - 0.01 in   Mostly Cloudy
2:15 AM 53.6 °F - 53.6 °F 100% 29.53 in 10.0 mi SE 10.4 mph - N/A Rain Light Rain
2:35 AM 53.6 °F - 53.6 °F 100% 29.51 in 10.0 mi SE 13.8 mph - N/A   Overcast
2:55 AM 53.6 °F - 53.6 °F 100% 29.52 in 10.0 mi SSE 16.1 mph - N/A   Overcast
3:15 AM 53.6 °F - 53.6 °F 100% 29.50 in 10.0 mi SSE 12.7 mph - N/A   Mostly Cloudy
3:35 AM 53.6 °F - 53.6 °F 100% 29.52 in 10.0 mi South 10.4 mph - N/A   Overcast
3:55 AM 53.6 °F - 53.6 °F 100% 29.52 in 10.0 mi SSE 11.5 mph - N/A   Overcast
4:15 AM 53.6 °F - 53.6 °F 100% 29.53 in 10.0 mi South 12.7 mph - N/A   Overcast
4:35 AM 53.6 °F - 53.6 °F 100% 29.52 in 10.0 mi South 13.8 mph - N/A   Overcast
4:55 AM 53.6 °F - 53.6 °F 100% 29.51 in 10.0 mi South 13.8 mph - N/A   Overcast
5:15 AM 53.6 °F - 53.6 °F 100% 29.49 in 10.0 mi SSW 15.0 mph - N/A   Overcast
5:35 AM 53.6 °F - 53.6 °F 100% 29.51 in 10.0 mi SSW 13.8 mph - N/A   Overcast
5:55 AM 53.6 °F - 53.6 °F 100% 29.49 in 10.0 mi South 13.8 mph - N/A   Overcast
6:15 AM 53.6 °F - 53.6 °F 100% 29.50 in 10.0 mi SSW 15.0 mph - N/A   Mostly Cloudy
6:35 AM 53.6 °F - 51.8 °F 94% 29.50 in 10.0 mi SSW 17.3 mph - N/A   Mostly Cloudy
6:55 AM 53.6 °F - 51.8 °F 94% 29.49 in 10.0 mi SSW 15.0 mph - N/A   Overcast
7:15 AM 53.6 °F - 50.0 °F 88% 29.49 in 10.0 mi SSW 17.3 mph - N/A   Mostly Cloudy
7:55 AM 53.6 °F - 50.0 °F 88% 29.50 in 10.0 mi SW 16.1 mph 19.6 mph N/A   Scattered Clouds
8:15 AM 53.6 °F - 50.0 °F 88% 29.50 in 10.0 mi SSW 17.3 mph 23.0 mph N/A   Partly Cloudy
8:35 AM 53.6 °F - 50.0 °F 88% 29.50 in 10.0 mi SW 18.4 mph 25.3 mph N/A   Mostly Cloudy
8:55 AM 53.6 °F - 50.0 °F 88% 29.50 in 10.0 mi SW 19.6 mph 25.3 mph N/A   Mostly Cloudy
9:15 AM 53.6 °F - 46.4 °F 77% 29.51 in 5.0 mi West 21.9 mph 29.9 mph N/A   Haze
9:35 AM 50.0 °F - 46.4 °F 87% 29.53 in 8.0 mi West 20.7 mph 26.5 mph N/A   Mostly Cloudy
9:55 AM 48.2 °F - 41.0 °F 76% 29.54 in 10.0 mi West 24.2 mph 34.5 mph N/A   Mostly Cloudy
10:15 AM 48.2 °F - 41.0 °F 76% 29.55 in 10.0 mi West 25.3 mph 34.5 mph N/A   Overcast
10:35 AM 46.4 °F 38.3 °F 39.2 °F 76% 29.55 in 9.0 mi WNW 23.0 mph 38.0 mph N/A   Overcast
10:55 AM 46.4 °F 39.0 °F 37.4 °F 71% 29.58 in 10.0 mi West 19.6 mph 39.1 mph N/A   Overcast
11:15 AM 46.4 °F 38.1 °F 37.4 °F 71% 29.60 in 10.0 mi West 24.2 mph 33.4 mph N/A   Scattered Clouds
12:15 PM 44.6 °F 35.5 °F 33.8 °F 66% 29.59 in 10.0 mi WNW 25.3 mph 32.2 mph N/A   Scattered Clouds
12:35 PM 44.6 °F 36.1 °F 32.0 °F 61% 29.60 in 10.0 mi West 21.9 mph 34.5 mph N/A   Mostly Cloudy
12:55 PM 44.6 °F 35.5 °F 32.0 °F 61% 29.60 in 10.0 mi West 25.3 mph 34.5 mph N/A   Mostly Cloudy
1:15 PM 44.6 °F 35.9 °F 32.0 °F 61% 29.62 in 10.0 mi West 23.0 mph 29.9 mph N/A   Scattered Clouds
1:55 PM 42.8 °F 33.1 °F 32.0 °F 66% 29.66 in 10.0 mi WNW 25.3 mph 35.7 mph N/A   Unknown
2:15 PM 41.0 °F 29.8 °F 28.4 °F 61% 29.67 in 10.0 mi West 29.9 mph 41.4 mph N/A   Scattered Clouds
2:55 PM 39.2 °F 28.5 °F 26.6 °F 61% 29.72 in 10.0 mi WNW 24.2 mph 38.0 mph N/A   Partly Cloudy
3:15 PM 39.2 °F 28.3 °F 26.6 °F 61% 29.73 in 10.0 mi West 25.3 mph 35.7 mph N/A   Scattered Clouds
3:35 PM 37.4 °F 26.6 °F 26.6 °F 65% 29.76 in 10.0 mi WNW 21.9 mph 26.5 mph N/A   Mostly Cloudy
3:55 PM 37.4 °F 25.4 °F 26.6 °F 65% 29.77 in 10.0 mi WNW 27.6 mph 35.7 mph N/A   Mostly Cloudy
4:15 PM 37.4 °F 26.1 °F 26.6 °F 65% 29.79 in 10.0 mi West 24.2 mph 29.9 mph N/A   Mostly Cloudy
4:35 PM 37.4 °F 26.1 °F 26.6 °F 65% 29.80 in 10.0 mi WNW 24.2 mph 38.0 mph N/A   Overcast
4:55 PM 37.4 °F 26.1 °F 24.8 °F 60% 29.81 in 10.0 mi WNW 24.2 mph 32.2 mph N/A   Overcast
5:15 PM 35.6 °F 23.7 °F 24.8 °F 65% 29.83 in 10.0 mi WNW 24.2 mph 31.1 mph N/A   Overcast
5:55 PM 35.6 °F 24.8 °F 24.8 °F 65% 29.86 in 10.0 mi WNW 19.6 mph 31.1 mph N/A   Overcast
6:15 PM 35.6 °F 24.0 °F 24.8 °F 65% 29.87 in 10.0 mi WNW 23.0 mph 32.2 mph N/A   Overcast
6:55 PM 35.6 °F 25.5 °F 24.8 °F 65% 29.90 in 10.0 mi WNW 17.3 mph 27.6 mph N/A   Overcast
7:15 PM 35.6 °F 26.2 °F 24.8 °F 65% 29.91 in 10.0 mi West 15.0 mph 25.3 mph N/A   Overcast
7:35 PM 35.6 °F 25.5 °F 24.8 °F 65% 29.93 in 10.0 mi West 17.3 mph 27.6 mph N/A   Overcast
7:55 PM 35.6 °F 24.5 °F 24.8 °F 65% 29.93 in 10.0 mi WNW 20.7 mph 33.4 mph N/A   Overcast
8:15 PM 35.6 °F 24.8 °F 24.8 °F 65% 29.95 in 10.0 mi West 19.6 mph 24.2 mph N/A   Overcast
8:35 PM 35.6 °F 23.7 °F 23.0 °F 60% 29.95 in 10.0 mi West 24.2 mph 29.9 mph N/A   Overcast
8:55 PM 33.8 °F 23.9 °F 24.8 °F 70% 29.96 in 10.0 mi West 15.0 mph 26.5 mph N/A   Overcast
9:15 PM 33.8 °F 22.2 °F 23.0 °F 65% 29.97 in 10.0 mi West 20.7 mph 25.3 mph N/A   Overcast
9:35 PM 33.8 °F 23.2 °F 24.8 °F 70% 29.99 in 10.0 mi West 17.3 mph 25.3 mph N/A   Overcast
9:55 PM 33.8 °F 21.3 °F 23.0 °F 65% 29.99 in 10.0 mi WNW 24.2 mph 36.8 mph N/A   Overcast
10:15 PM 32.0 °F 18.9 °F 23.0 °F 69% 30.00 in 10.0 mi West 24.2 mph - N/A   Overcast
10:35 PM 32.0 °F 20.8 °F 21.2 °F 64% 30.02 in 10.0 mi West 17.3 mph 24.2 mph N/A   Overcast
10:55 PM 32.0 °F 19.2 °F 21.2 °F 64% 30.02 in 10.0 mi West 23.0 mph 31.1 mph N/A   Overcast
11:15 PM 32.0 °F 21.2 °F 21.2 °F 64% 30.03 in 10.0 mi WNW 16.1 mph 28.8 mph N/A   Overcast
11:35 PM 32.0 °F 22.1 °F 21.2 °F 64% 30.02 in 10.0 mi WNW 13.8 mph 20.7 mph N/A   Overcast
11:55 PM 32.0 °F 23.0 °F 23.0 °F 69% 30.03 in 10.0 mi WNW 11.5 mph 18.4 mph N/A   Overcast